sensor_id;sensor_type;location;lat;lon;timestamp;P1;P2;P0
64861;PMS5003;62652;42.274;-71.436;2023-05-07T00:00:00;0.23;0.23;0.00
64861;PMS5003;62652;42.274;-71.436;2023-05-07T00:01:00;0.10;0.10;0.03
64861;PMS5003;62652;42.274;-71.436;2023-05-07T00:02:00;1.13;1.00;1.00
64861;PMS5003;62652;42.274;-71.436;2023-05-07T00:03:00;0.37;0.37;0.10
64861;PMS5003;62652;42.274;-71.436;2023-05-07T00:04:00;1.57;1.57;0.87
64861;PMS5003;62652;42.274;-71.436;2023-05-07T00:05:00;0.83;0.63;0.00
64861;PMS5003;62652;42.274;-71.436;2023-05-07T00:06:00;1.30;1.30;0.43
64861;PMS5003;62652;42.274;-71.436;2023-05-07T00:07:00;0.93;0.93;0.63
64861;PMS5003;62652;42.274;-71.436;2023-05-07T00:08:00;0.20;0.03;0.00
64861;PMS5003;62652;42.274;-71.436;2023-05-07T00:09:00;0.87;0.87;0.57
64861;PMS5003;62652;42.274;-71.436;2023-05-07T00:10:00;0.27;0.27;0.00
64861;PMS5003;62652;42.274;-71.436;2023-05-07T00:11:00;0.37;0.37;0.07
64861;PMS5003;62652;42.274;-71.436;2023-05-07T00:12:00;0.00;0.00;0.00
64861;PMS5003;62652;42.274;-71.436;2023-05-07T00:13:00;0.27;0.17;0.00
64861;PMS5003;62652;42.274;-71.436;2023-05-07T00:14:00;0.63;0.63;0.00
64861;PMS5003;62652;42.274;-71.436;2023-05-07T00:15:01;0.23;0.23;0.13
64861;PMS5003;62652;42.274;-71.436;2023-05-07T00:16:00;0.90;0.90;0.87
64861;PMS5003;62652;42.274;-71.436;2023-05-07T00:17:00;0.57;0.40;0.00
64861;PMS5003;62652;42.274;-71.436;2023-05-07T00:18:00;0.10;0.10;0.00
64861;PMS5003;62652;42.274;-71.436;2023-05-07T00:19:00;0.60;0.60;0.30
64861;PMS5003;62652;42.274;-71.436;2023-05-07T00:20:00;0.63;0.63;0.17
64861;PMS5003;62652;42.274;-71.436;2023-05-07T00:21:00;5.60;4.63;2.53
64861;PMS5003;62652;42.274;-71.436;2023-05-07T00:22:00;1.20;1.10;0.90
64861;PMS5003;62652;42.274;-71.436;2023-05-07T00:23:00;0.90;0.90;0.00
64861;PMS5003;62652;42.274;-71.436;2023-05-07T00:24:01;1.00;1.00;0.33
64861;PMS5003;62652;42.274;-71.436;2023-05-07T00:25:00;1.33;0.57;0.43
64861;PMS5003;62652;42.274;-71.436;2023-05-07T00:26:00;0.13;0.13;0.00
64861;PMS5003;62652;42.274;-71.436;2023-05-07T00:27:00;0.27;0.13;0.00
64861;PMS5003;62652;42.274;-71.436;2023-05-07T00:28:00;0.43;0.43;0.43
64861;PMS5003;62652;42.274;-71.436;2023-05-07T00:29:00;0.43;0.30;0.20
64861;PMS5003;62652;42.274;-71.436;2023-05-07T00:30:00;0.23;0.23;0.00
64861;PMS5003;62652;42.274;-71.436;2023-05-07T00:31:00;0.63;0.63;0.53
64861;PMS5003;62652;42.274;-71.436;2023-05-07T00:32:00;0.53;0.53;0.53
64861;PMS5003;62652;42.274;-71.436;2023-05-07T00:33:00;1.00;1.00;0.50
64861;PMS5003;62652;42.274;-71.436;2023-05-07T00:34:00;0.93;0.47;0.27
64861;PMS5003;62652;42.274;-71.436;2023-05-07T00:35:00;0.87;0.87;0.43
64861;PMS5003;62652;42.274;-71.436;2023-05-07T00:36:00;1.87;1.87;1.00
64861;PMS5003;62652;42.274;-71.436;2023-05-07T00:37:01;0.20;0.20;0.10
64861;PMS5003;62652;42.274;-71.436;2023-05-07T00:38:00;0.53;0.53;0.50
64861;PMS5003;62652;42.274;-71.436;2023-05-07T00:39:00;0.27;0.27;0.27
64861;PMS5003;62652;42.274;-71.436;2023-05-07T00:40:00;1.50;0.87;0.87
64861;PMS5003;62652;42.274;-71.436;2023-05-07T00:41:00;0.57;0.57;0.57
64861;PMS5003;62652;42.274;-71.436;2023-05-07T00:42:00;0.97;0.87;0.10
64861;PMS5003;62652;42.274;-71.436;2023-05-07T00:43:00;1.00;1.00;0.87
64861;PMS5003;62652;42.274;-71.436;2023-05-07T00:44:00;0.80;0.80;0.80
64861;PMS5003;62652;42.274;-71.436;2023-05-07T00:45:00;0.90;0.90;0.40
64861;PMS5003;62652;42.274;-71.436;2023-05-07T00:46:01;0.77;0.77;0.23
64861;PMS5003;62652;42.274;-71.436;2023-05-07T00:47:01;0.73;0.73;0.60
64861;PMS5003;62652;42.274;-71.436;2023-05-07T00:48:01;0.90;0.90;0.00
64861;PMS5003;62652;42.274;-71.436;2023-05-07T00:49:00;0.93;0.93;0.90
64861;PMS5003;62652;42.274;-71.436;2023-05-07T00:50:00;0.47;0.47;0.23
64861;PMS5003;62652;42.274;-71.436;2023-05-07T00:51:00;0.63;0.63;0.23
64861;PMS5003;62652;42.274;-71.436;2023-05-07T00:52:00;1.97;1.67;1.00
64861;PMS5003;62652;42.274;-71.436;2023-05-07T00:53:00;1.10;1.10;0.73
64861;PMS5003;62652;42.274;-71.436;2023-05-07T00:54:01;1.47;1.47;0.23
64861;PMS5003;62652;42.274;-71.436;2023-05-07T00:55:01;0.57;0.57;0.23
64861;PMS5003;62652;42.274;-71.436;2023-05-07T00:56:00;1.60;1.60;1.00
64861;PMS5003;62652;42.274;-71.436;2023-05-07T00:57:02;2.10;1.07;0.90
64861;PMS5003;62652;42.274;-71.436;2023-05-07T00:58:00;1.50;1.50;1.00
64861;PMS5003;62652;42.274;-71.436;2023-05-07T00:59:01;2.17;2.17;1.73
64861;PMS5003;62652;42.274;-71.436;2023-05-07T01:00:01;2.03;1.47;1.37
64861;PMS5003;62652;42.274;-71.436;2023-05-07T01:01:01;1.97;1.47;1.17
64861;PMS5003;62652;42.274;-71.436;2023-05-07T01:02:00;1.80;1.50;1.47
64861;PMS5003;62652;42.274;-71.436;2023-05-07T01:03:00;1.47;1.47;0.87
64861;PMS5003;62652;42.274;-71.436;2023-05-07T01:04:00;1.87;1.87;1.87
64861;PMS5003;62652;42.274;-71.436;2023-05-07T01:05:00;3.27;3.27;2.63
64861;PMS5003;62652;42.274;-71.436;2023-05-07T01:06:00;2.37;2.37;2.00
64861;PMS5003;62652;42.274;-71.436;2023-05-07T01:07:00;3.33;2.83;1.83
64861;PMS5003;62652;42.274;-71.436;2023-05-07T01:08:01;2.53;2.53;1.57
64861;PMS5003;62652;42.274;-71.436;2023-05-07T01:09:00;2.90;2.90;2.13
64861;PMS5003;62652;42.274;-71.436;2023-05-07T01:10:00;3.30;3.00;2.00
64861;PMS5003;62652;42.274;-71.436;2023-05-07T01:11:00;3.00;3.00;2.00
64861;PMS5003;62652;42.274;-71.436;2023-05-07T01:12:00;1.90;1.90;1.90
64861;PMS5003;62652;42.274;-71.436;2023-05-07T01:13:00;3.27;2.67;1.97
64861;PMS5003;62652;42.274;-71.436;2023-05-07T01:14:00;2.83;2.83;1.87
64861;PMS5003;62652;42.274;-71.436;2023-05-07T01:15:00;2.70;2.70;1.90
64861;PMS5003;62652;42.274;-71.436;2023-05-07T01:16:00;3.33;2.73;2.43
64861;PMS5003;62652;42.274;-71.436;2023-05-07T01:17:00;2.33;2.33;2.13
64861;PMS5003;62652;42.274;-71.436;2023-05-07T01:18:00;1.80;1.67;1.47
64861;PMS5003;62652;42.274;-71.436;2023-05-07T01:19:01;2.73;2.73;2.07
64861;PMS5003;62652;42.274;-71.436;2023-05-07T01:20:00;1.90;1.90;1.37
64861;PMS5003;62652;42.274;-71.436;2023-05-07T01:21:00;3.00;2.97;1.87
64861;PMS5003;62652;42.274;-71.436;2023-05-07T01:22:02;3.00;3.00;2.50
64861;PMS5003;62652;42.274;-71.436;2023-05-07T01:23:00;2.67;2.67;1.90
64861;PMS5003;62652;42.274;-71.436;2023-05-07T01:24:00;2.97;2.17;0.47
64861;PMS5003;62652;42.274;-71.436;2023-05-07T01:25:00;2.13;2.07;1.80
64861;PMS5003;62652;42.274;-71.436;2023-05-07T01:26:00;3.37;2.90;2.00
64861;PMS5003;62652;42.274;-71.436;2023-05-07T01:27:00;3.37;3.37;2.20
64861;PMS5003;62652;42.274;-71.436;2023-05-07T01:28:00;3.27;2.03;1.43
64861;PMS5003;62652;42.274;-71.436;2023-05-07T01:29:00;3.53;3.53;2.87
64861;PMS5003;62652;42.274;-71.436;2023-05-07T01:30:01;4.53;3.77;2.87
64861;PMS5003;62652;42.274;-71.436;2023-05-07T01:31:01;4.00;3.93;3.00
64861;PMS5003;62652;42.274;-71.436;2023-05-07T01:32:00;4.57;3.73;2.90
64861;PMS5003;62652;42.274;-71.436;2023-05-07T01:33:01;4.80;4.80;3.80
64861;PMS5003;62652;42.274;-71.436;2023-05-07T01:34:00;2.90;2.90;2.57
64861;PMS5003;62652;42.274;-71.436;2023-05-07T01:35:01;3.23;3.23;2.23
64861;PMS5003;62652;42.274;-71.436;2023-05-07T01:36:00;3.30;3.30;2.60
64861;PMS5003;62652;42.274;-71.436;2023-05-07T01:37:00;3.57;2.97;2.20
64861;PMS5003;62652;42.274;-71.436;2023-05-07T01:38:00;2.73;2.73;2.03
64861;PMS5003;62652;42.274;-71.436;2023-05-07T01:39:00;2.63;2.63;1.73
64861;PMS5003;62652;42.274;-71.436;2023-05-07T01:40:01;3.07;3.00;2.00
64861;PMS5003;62652;42.274;-71.436;2023-05-07T01:41:01;2.30;2.30;1.80
64861;PMS5003;62652;42.274;-71.436;2023-05-07T01:42:00;2.70;2.43;1.43
64861;PMS5003;62652;42.274;-71.436;2023-05-07T01:43:00;2.10;2.10;1.93
64861;PMS5003;62652;42.274;-71.436;2023-05-07T01:44:00;2.87;2.87;1.87
64861;PMS5003;62652;42.274;-71.436;2023-05-07T01:45:00;2.90;1.87;1.63
64861;PMS5003;62652;42.274;-71.436;2023-05-07T01:46:00;2.70;2.70;1.60
64861;PMS5003;62652;42.274;-71.436;2023-05-07T01:47:01;2.83;2.83;1.87
64861;PMS5003;62652;42.274;-71.436;2023-05-07T01:48:01;4.00;4.00;3.00
64861;PMS5003;62652;42.274;-71.436;2023-05-07T01:49:00;3.03;2.87;2.17
64861;PMS5003;62652;42.274;-71.436;2023-05-07T01:50:00;3.10;3.10;2.23
64861;PMS5003;62652;42.274;-71.436;2023-05-07T01:51:00;2.37;2.37;1.77
64861;PMS5003;62652;42.274;-71.436;2023-05-07T01:52:01;4.50;4.50;3.40
64861;PMS5003;62652;42.274;-71.436;2023-05-07T01:53:01;4.30;4.30;2.77
64861;PMS5003;62652;42.274;-71.436;2023-05-07T01:54:00;3.20;3.20;2.60
64861;PMS5003;62652;42.274;-71.436;2023-05-07T01:55:00;1.37;1.37;1.33
64861;PMS5003;62652;42.274;-71.436;2023-05-07T01:56:00;2.63;2.30;1.67
64861;PMS5003;62652;42.274;-71.436;2023-05-07T01:57:00;3.63;3.23;2.03
64861;PMS5003;62652;42.274;-71.436;2023-05-07T01:58:00;3.73;3.73;3.00
64861;PMS5003;62652;42.274;-71.436;2023-05-07T01:59:00;4.00;3.87;3.00
64861;PMS5003;62652;42.274;-71.436;2023-05-07T02:00:00;4.03;3.83;2.30
64861;PMS5003;62652;42.274;-71.436;2023-05-07T02:01:00;2.83;2.83;1.93
64861;PMS5003;62652;42.274;-71.436;2023-05-07T02:02:00;2.37;2.17;1.90
64861;PMS5003;62652;42.274;-71.436;2023-05-07T02:03:01;2.90;2.90;2.17
64861;PMS5003;62652;42.274;-71.436;2023-05-07T02:04:00;2.90;2.77;1.90
64861;PMS5003;62652;42.274;-71.436;2023-05-07T02:05:01;2.20;1.40;1.00
64861;PMS5003;62652;42.274;-71.436;2023-05-07T02:06:00;2.47;2.00;1.20
64861;PMS5003;62652;42.274;-71.436;2023-05-07T02:07:00;2.77;2.77;2.00
64861;PMS5003;62652;42.274;-71.436;2023-05-07T02:08:00;1.77;1.53;1.03
64861;PMS5003;62652;42.274;-71.436;2023-05-07T02:09:00;2.23;2.23;1.83
64861;PMS5003;62652;42.274;-71.436;2023-05-07T02:10:00;2.57;2.57;2.13
64861;PMS5003;62652;42.274;-71.436;2023-05-07T02:11:00;2.30;2.30;1.80
64861;PMS5003;62652;42.274;-71.436;2023-05-07T02:12:00;2.73;2.73;1.73
64861;PMS5003;62652;42.274;-71.436;2023-05-07T02:13:00;2.77;2.57;2.00
64861;PMS5003;62652;42.274;-71.436;2023-05-07T02:14:01;3.30;3.10;2.27
64861;PMS5003;62652;42.274;-71.436;2023-05-07T02:15:00;3.33;3.33;2.43
64861;PMS5003;62652;42.274;-71.436;2023-05-07T02:16:00;2.27;2.27;1.53
64861;PMS5003;62652;42.274;-71.436;2023-05-07T02:17:00;3.00;3.00;2.00
64861;PMS5003;62652;42.274;-71.436;2023-05-07T02:18:02;4.03;3.90;2.40
64861;PMS5003;62652;42.274;-71.436;2023-05-07T02:19:00;2.33;2.33;1.77
64861;PMS5003;62652;42.274;-71.436;2023-05-07T02:20:00;3.00;3.00;2.40
64861;PMS5003;62652;42.274;-71.436;2023-05-07T02:21:00;2.27;2.20;1.67
64861;PMS5003;62652;42.274;-71.436;2023-05-07T02:22:00;1.87;1.87;1.67
64861;PMS5003;62652;42.274;-71.436;2023-05-07T02:23:00;0.97;0.80;0.57
64861;PMS5003;62652;42.274;-71.436;2023-05-07T02:24:00;3.17;2.77;2.17
64861;PMS5003;62652;42.274;-71.436;2023-05-07T02:25:00;4.43;3.87;2.60
64861;PMS5003;62652;42.274;-71.436;2023-05-07T02:26:00;3.47;3.47;1.90
64861;PMS5003;62652;42.274;-71.436;2023-05-07T02:27:00;4.10;3.60;2.63
64861;PMS5003;62652;42.274;-71.436;2023-05-07T02:28:00;3.00;3.00;2.10
64861;PMS5003;62652;42.274;-71.436;2023-05-07T02:29:00;4.57;4.33;3.50
64861;PMS5003;62652;42.274;-71.436;2023-05-07T02:30:00;3.70;3.53;2.67
64861;PMS5003;62652;42.274;-71.436;2023-05-07T02:31:02;2.27;2.27;1.90
64861;PMS5003;62652;42.274;-71.436;2023-05-07T02:32:00;2.63;2.63;1.40
64861;PMS5003;62652;42.274;-71.436;2023-05-07T02:33:00;2.13;2.13;1.33
64861;PMS5003;62652;42.274;-71.436;2023-05-07T02:34:00;2.47;1.93;1.47
64861;PMS5003;62652;42.274;-71.436;2023-05-07T02:35:00;3.10;3.10;2.30
64861;PMS5003;62652;42.274;-71.436;2023-05-07T02:36:06;2.90;2.90;2.07
64861;PMS5003;62652;42.274;-71.436;2023-05-07T02:37:00;2.80;2.70;1.97
64861;PMS5003;62652;42.274;-71.436;2023-05-07T02:38:00;2.23;2.23;2.03
64861;PMS5003;62652;42.274;-71.436;2023-05-07T02:39:00;2.90;2.70;1.60
64861;PMS5003;62652;42.274;-71.436;2023-05-07T02:40:00;2.83;2.83;2.00
64861;PMS5003;62652;42.274;-71.436;2023-05-07T02:41:00;2.80;2.47;1.97
64861;PMS5003;62652;42.274;-71.436;2023-05-07T02:42:00;1.77;1.40;1.10
64861;PMS5003;62652;42.274;-71.436;2023-05-07T02:43:00;1.63;1.63;0.87
64861;PMS5003;62652;42.274;-71.436;2023-05-07T02:44:00;1.77;1.77;1.17
64861;PMS5003;62652;42.274;-71.436;2023-05-07T02:45:00;2.30;2.20;1.47
64861;PMS5003;62652;42.274;-71.436;2023-05-07T02:46:01;3.73;3.53;2.60
64861;PMS5003;62652;42.274;-71.436;2023-05-07T02:47:01;12.57;12.17;7.80
64861;PMS5003;62652;42.274;-71.436;2023-05-07T02:48:00;8.30;7.63;5.03
64861;PMS5003;62652;42.274;-71.436;2023-05-07T02:49:00;3.77;3.47;1.67
64861;PMS5003;62652;42.274;-71.436;2023-05-07T02:50:00;3.10;2.90;1.63
64861;PMS5003;62652;42.274;-71.436;2023-05-07T02:51:00;3.30;3.30;2.73
64861;PMS5003;62652;42.274;-71.436;2023-05-07T02:52:00;3.50;3.07;1.87
64861;PMS5003;62652;42.274;-71.436;2023-05-07T02:53:00;2.40;2.40;2.10
64861;PMS5003;62652;42.274;-71.436;2023-05-07T02:54:00;2.90;2.90;2.00
64861;PMS5003;62652;42.274;-71.436;2023-05-07T02:55:00;2.43;2.43;1.90
64861;PMS5003;62652;42.274;-71.436;2023-05-07T02:56:01;3.00;3.00;2.00
64861;PMS5003;62652;42.274;-71.436;2023-05-07T02:57:00;2.87;2.87;1.93
64861;PMS5003;62652;42.274;-71.436;2023-05-07T02:58:01;2.90;2.60;1.87
64861;PMS5003;62652;42.274;-71.436;2023-05-07T02:59:00;2.07;2.07;1.83
64861;PMS5003;62652;42.274;-71.436;2023-05-07T03:00:09;2.40;2.10;1.73
64861;PMS5003;62652;42.274;-71.436;2023-05-07T03:01:00;3.80;3.20;2.40
64861;PMS5003;62652;42.274;-71.436;2023-05-07T03:02:00;3.37;3.37;2.43
64861;PMS5003;62652;42.274;-71.436;2023-05-07T03:03:00;2.90;2.90;1.93
64861;PMS5003;62652;42.274;-71.436;2023-05-07T03:04:00;3.90;3.40;2.10
64861;PMS5003;62652;42.274;-71.436;2023-05-07T03:05:00;2.73;2.33;1.90
64861;PMS5003;62652;42.274;-71.436;2023-05-07T03:06:00;3.93;3.50;2.67
64861;PMS5003;62652;42.274;-71.436;2023-05-07T03:07:00;2.13;2.13;1.90
64861;PMS5003;62652;42.274;-71.436;2023-05-07T03:08:00;3.37;3.37;1.67
64861;PMS5003;62652;42.274;-71.436;2023-05-07T03:09:01;3.03;2.63;1.90
64861;PMS5003;62652;42.274;-71.436;2023-05-07T03:10:00;2.70;2.70;1.80
64861;PMS5003;62652;42.274;-71.436;2023-05-07T03:11:00;2.63;2.63;2.00
64861;PMS5003;62652;42.274;-71.436;2023-05-07T03:12:00;4.73;4.57;3.00
64861;PMS5003;62652;42.274;-71.436;2023-05-07T03:13:00;4.20;3.63;1.87
64861;PMS5003;62652;42.274;-71.436;2023-05-07T03:14:00;2.90;2.90;2.33
64861;PMS5003;62652;42.274;-71.436;2023-05-07T03:15:00;2.83;2.83;2.47
64861;PMS5003;62652;42.274;-71.436;2023-05-07T03:16:00;3.80;3.23;2.00
64861;PMS5003;62652;42.274;-71.436;2023-05-07T03:17:00;3.93;2.97;2.60
64861;PMS5003;62652;42.274;-71.436;2023-05-07T03:18:00;3.77;3.27;2.17
64861;PMS5003;62652;42.274;-71.436;2023-05-07T03:19:00;3.30;3.30;2.00
64861;PMS5003;62652;42.274;-71.436;2023-05-07T03:20:00;3.73;3.73;2.40
64861;PMS5003;62652;42.274;-71.436;2023-05-07T03:21:00;3.90;3.77;2.40
64861;PMS5003;62652;42.274;-71.436;2023-05-07T03:22:00;4.23;4.07;3.27
64861;PMS5003;62652;42.274;-71.436;2023-05-07T03:23:00;3.00;2.50;2.00
64861;PMS5003;62652;42.274;-71.436;2023-05-07T03:24:00;3.03;3.03;2.60
64861;PMS5003;62652;42.274;-71.436;2023-05-07T03:25:00;3.83;3.63;2.67
64861;PMS5003;62652;42.274;-71.436;2023-05-07T03:26:00;4.77;4.77;3.30
64861;PMS5003;62652;42.274;-71.436;2023-05-07T03:27:00;4.17;3.03;2.63
64861;PMS5003;62652;42.274;-71.436;2023-05-07T03:28:00;4.00;4.00;2.80
64861;PMS5003;62652;42.274;-71.436;2023-05-07T03:29:00;4.27;4.27;3.07
64861;PMS5003;62652;42.274;-71.436;2023-05-07T03:30:00;3.80;3.80;2.60
64861;PMS5003;62652;42.274;-71.436;2023-05-07T03:31:01;3.13;3.13;1.93
64861;PMS5003;62652;42.274;-71.436;2023-05-07T03:32:00;3.83;3.83;3.00
64861;PMS5003;62652;42.274;-71.436;2023-05-07T03:33:00;4.50;4.07;3.10
64861;PMS5003;62652;42.274;-71.436;2023-05-07T03:34:00;3.77;3.77;3.37
64861;PMS5003;62652;42.274;-71.436;2023-05-07T03:35:00;4.33;4.13;2.57
64861;PMS5003;62652;42.274;-71.436;2023-05-07T03:36:00;2.90;2.90;2.03
64861;PMS5003;62652;42.274;-71.436;2023-05-07T03:37:00;4.63;2.90;1.90
64861;PMS5003;62652;42.274;-71.436;2023-05-07T03:38:00;3.70;3.43;2.53
64861;PMS5003;62652;42.274;-71.436;2023-05-07T03:39:00;3.17;2.87;2.47
64861;PMS5003;62652;42.274;-71.436;2023-05-07T03:40:00;2.40;2.40;2.23
64861;PMS5003;62652;42.274;-71.436;2023-05-07T03:41:00;2.63;2.63;1.93
64861;PMS5003;62652;42.274;-71.436;2023-05-07T03:42:01;3.47;3.47;2.57
64861;PMS5003;62652;42.274;-71.436;2023-05-07T03:43:00;3.20;3.00;2.03
64861;PMS5003;62652;42.274;-71.436;2023-05-07T03:44:00;4.13;3.93;2.43
64861;PMS5003;62652;42.274;-71.436;2023-05-07T03:45:00;3.07;2.87;2.27
64861;PMS5003;62652;42.274;-71.436;2023-05-07T03:46:00;3.13;2.93;1.97
64861;PMS5003;62652;42.274;-71.436;2023-05-07T03:47:00;3.57;3.37;2.33
64861;PMS5003;62652;42.274;-71.436;2023-05-07T03:48:00;3.90;3.90;3.00
64861;PMS5003;62652;42.274;-71.436;2023-05-07T03:49:00;4.23;4.13;3.00
64861;PMS5003;62652;42.274;-71.436;2023-05-07T03:50:00;3.77;3.77;3.00
64861;PMS5003;62652;42.274;-71.436;2023-05-07T03:51:00;4.90;4.87;3.47
64861;PMS5003;62652;42.274;-71.436;2023-05-07T03:52:00;3.97;3.07;2.47
64861;PMS5003;62652;42.274;-71.436;2023-05-07T03:53:00;3.10;3.00;2.47
64861;PMS5003;62652;42.274;-71.436;2023-05-07T03:54:00;4.00;3.33;2.43
64861;PMS5003;62652;42.274;-71.436;2023-05-07T03:55:00;3.90;3.90;2.87
64861;PMS5003;62652;42.274;-71.436;2023-05-07T03:56:00;3.80;3.33;2.43
64861;PMS5003;62652;42.274;-71.436;2023-05-07T03:57:00;2.50;2.10;2.03
64861;PMS5003;62652;42.274;-71.436;2023-05-07T03:58:00;4.07;4.07;2.97
64861;PMS5003;62652;42.274;-71.436;2023-05-07T03:59:00;4.20;4.20;3.50
64861;PMS5003;62652;42.274;-71.436;2023-05-07T04:00:00;4.03;4.03;3.33
64861;PMS5003;62652;42.274;-71.436;2023-05-07T04:01:00;4.73;4.37;3.37
64861;PMS5003;62652;42.274;-71.436;2023-05-07T04:02:00;4.63;4.10;3.30
64861;PMS5003;62652;42.274;-71.436;2023-05-07T04:03:00;4.27;3.53;2.93
64861;PMS5003;62652;42.274;-71.436;2023-05-07T04:04:01;3.30;3.20;2.13
64861;PMS5003;62652;42.274;-71.436;2023-05-07T04:05:00;3.97;3.97;3.57
64861;PMS5003;62652;42.274;-71.436;2023-05-07T04:06:00;4.10;3.77;2.87
64861;PMS5003;62652;42.274;-71.436;2023-05-07T04:07:00;5.03;4.57;4.00
64861;PMS5003;62652;42.274;-71.436;2023-05-07T04:08:00;2.80;2.80;1.90
64861;PMS5003;62652;42.274;-71.436;2023-05-07T04:09:00;3.70;3.70;2.03
64861;PMS5003;62652;42.274;-71.436;2023-05-07T04:10:00;3.57;3.13;2.53
64861;PMS5003;62652;42.274;-71.436;2023-05-07T04:11:00;2.67;2.67;1.67
64861;PMS5003;62652;42.274;-71.436;2023-05-07T04:12:00;3.50;2.93;1.93
64861;PMS5003;62652;42.274;-71.436;2023-05-07T04:13:00;2.23;2.23;2.03
64861;PMS5003;62652;42.274;-71.436;2023-05-07T04:14:00;3.53;3.23;2.67
64861;PMS5003;62652;42.274;-71.436;2023-05-07T04:15:01;3.07;2.87;1.93
64861;PMS5003;62652;42.274;-71.436;2023-05-07T04:16:01;3.57;3.53;2.27
64861;PMS5003;62652;42.274;-71.436;2023-05-07T04:17:00;3.00;3.00;2.07
64861;PMS5003;62652;42.274;-71.436;2023-05-07T04:18:00;3.37;3.37;2.73
64861;PMS5003;62652;42.274;-71.436;2023-05-07T04:19:00;3.27;3.27;2.10
64861;PMS5003;62652;42.274;-71.436;2023-05-07T04:20:00;4.10;3.63;2.40
64861;PMS5003;62652;42.274;-71.436;2023-05-07T04:21:00;3.90;3.53;3.13
64861;PMS5003;62652;42.274;-71.436;2023-05-07T04:22:00;4.17;3.77;2.97
64861;PMS5003;62652;42.274;-71.436;2023-05-07T04:23:00;4.47;4.17;2.93
64861;PMS5003;62652;42.274;-71.436;2023-05-07T04:24:02;3.57;2.67;2.57
64861;PMS5003;62652;42.274;-71.436;2023-05-07T04:25:00;4.00;4.00;2.90
64861;PMS5003;62652;42.274;-71.436;2023-05-07T04:26:01;4.10;4.10;3.00
64861;PMS5003;62652;42.274;-71.436;2023-05-07T04:27:00;3.40;3.33;2.73
64861;PMS5003;62652;42.274;-71.436;2023-05-07T04:28:00;2.67;2.67;1.73
64861;PMS5003;62652;42.274;-71.436;2023-05-07T04:29:00;4.90;4.03;2.80
64861;PMS5003;62652;42.274;-71.436;2023-05-07T04:30:00;4.83;4.47;3.57
64861;PMS5003;62652;42.274;-71.436;2023-05-07T04:31:00;9.10;8.07;5.33
64861;PMS5003;62652;42.274;-71.436;2023-05-07T04:32:00;6.13;5.83;4.33
64861;PMS5003;62652;42.274;-71.436;2023-05-07T04:33:00;11.80;11.13;8.37
64861;PMS5003;62652;42.274;-71.436;2023-05-07T04:34:00;11.40;10.73;7.83
64861;PMS5003;62652;42.274;-71.436;2023-05-07T04:35:00;8.87;8.67;6.63
64861;PMS5003;62652;42.274;-71.436;2023-05-07T04:36:01;5.57;5.47;4.03
64861;PMS5003;62652;42.274;-71.436;2023-05-07T04:37:00;6.10;6.07;4.97
64861;PMS5003;62652;42.274;-71.436;2023-05-07T04:38:00;5.40;4.87;3.87
64861;PMS5003;62652;42.274;-71.436;2023-05-07T04:39:00;5.57;5.27;3.77
64861;PMS5003;62652;42.274;-71.436;2023-05-07T04:40:00;4.47;4.30;3.77
64861;PMS5003;62652;42.274;-71.436;2023-05-07T04:41:02;3.53;3.53;2.93
64861;PMS5003;62652;42.274;-71.436;2023-05-07T04:42:00;6.07;5.23;3.97
64861;PMS5003;62652;42.274;-71.436;2023-05-07T04:43:00;4.53;4.47;3.57
64861;PMS5003;62652;42.274;-71.436;2023-05-07T04:44:00;2.90;2.90;2.37
64861;PMS5003;62652;42.274;-71.436;2023-05-07T04:45:00;2.83;2.83;1.93
64861;PMS5003;62652;42.274;-71.436;2023-05-07T04:46:00;4.67;4.13;3.07
64861;PMS5003;62652;42.274;-71.436;2023-05-07T04:47:00;2.83;2.83;2.37
64861;PMS5003;62652;42.274;-71.436;2023-05-07T04:48:01;5.00;4.17;2.53
64861;PMS5003;62652;42.274;-71.436;2023-05-07T04:49:00;4.47;3.17;2.60
64861;PMS5003;62652;42.274;-71.436;2023-05-07T04:50:00;5.00;3.80;2.90
64861;PMS5003;62652;42.274;-71.436;2023-05-07T04:51:00;3.63;2.70;2.60
64861;PMS5003;62652;42.274;-71.436;2023-05-07T04:52:00;4.77;4.20;3.10
64861;PMS5003;62652;42.274;-71.436;2023-05-07T04:53:00;1.97;1.97;1.73
64861;PMS5003;62652;42.274;-71.436;2023-05-07T04:54:00;3.97;3.77;2.77
64861;PMS5003;62652;42.274;-71.436;2023-05-07T04:55:00;3.00;3.00;2.10
64861;PMS5003;62652;42.274;-71.436;2023-05-07T04:56:00;3.57;3.57;2.97
64861;PMS5003;62652;42.274;-71.436;2023-05-07T04:57:00;4.27;3.93;3.03
64861;PMS5003;62652;42.274;-71.436;2023-05-07T04:58:00;2.57;2.57;2.03
64861;PMS5003;62652;42.274;-71.436;2023-05-07T04:59:01;3.43;3.00;2.67
64861;PMS5003;62652;42.274;-71.436;2023-05-07T05:00:00;2.03;2.03;1.57
64861;PMS5003;62652;42.274;-71.436;2023-05-07T05:01:00;3.87;3.87;2.87
64861;PMS5003;62652;42.274;-71.436;2023-05-07T05:02:00;2.67;2.67;1.73
64861;PMS5003;62652;42.274;-71.436;2023-05-07T05:03:00;2.93;2.77;2.33
64861;PMS5003;62652;42.274;-71.436;2023-05-07T05:04:00;3.20;3.20;2.30
64861;PMS5003;62652;42.274;-71.436;2023-05-07T05:05:00;3.10;3.10;2.53
64861;PMS5003;62652;42.274;-71.436;2023-05-07T05:06:00;4.07;3.90;3.00
64861;PMS5003;62652;42.274;-71.436;2023-05-07T05:07:00;2.73;2.73;2.00
64861;PMS5003;62652;42.274;-71.436;2023-05-07T05:08:00;3.03;2.80;2.53
64861;PMS5003;62652;42.274;-71.436;2023-05-07T05:09:00;2.23;2.03;1.53
64861;PMS5003;62652;42.274;-71.436;2023-05-07T05:10:01;4.17;3.03;1.87
64861;PMS5003;62652;42.274;-71.436;2023-05-07T05:11:00;3.57;3.57;2.63
64861;PMS5003;62652;42.274;-71.436;2023-05-07T05:12:00;3.93;3.93;3.60
64861;PMS5003;62652;42.274;-71.436;2023-05-07T05:13:00;3.23;3.23;2.90
64861;PMS5003;62652;42.274;-71.436;2023-05-07T05:14:00;4.63;4.03;3.00
64861;PMS5003;62652;42.274;-71.436;2023-05-07T05:15:00;4.03;4.03;3.17
64861;PMS5003;62652;42.274;-71.436;2023-05-07T05:16:00;3.97;3.77;2.90
64861;PMS5003;62652;42.274;-71.436;2023-05-07T05:17:00;4.63;4.07;3.07
64861;PMS5003;62652;42.274;-71.436;2023-05-07T05:18:00;3.43;2.60;1.97
64861;PMS5003;62652;42.274;-71.436;2023-05-07T05:19:01;4.60;4.57;3.00
64861;PMS5003;62652;42.274;-71.436;2023-05-07T05:20:00;5.57;5.00;3.90
64861;PMS5003;62652;42.274;-71.436;2023-05-07T05:21:01;5.13;5.13;3.77
64861;PMS5003;62652;42.274;-71.436;2023-05-07T05:22:00;4.13;4.13;3.03
64861;PMS5003;62652;42.274;-71.436;2023-05-07T05:23:00;4.53;4.53;3.93
64861;PMS5003;62652;42.274;-71.436;2023-05-07T05:24:00;5.73;4.90;3.40
64861;PMS5003;62652;42.274;-71.436;2023-05-07T05:25:00;4.00;4.00;3.30
64861;PMS5003;62652;42.274;-71.436;2023-05-07T05:26:00;3.40;3.40;2.70
64861;PMS5003;62652;42.274;-71.436;2023-05-07T05:27:00;3.47;3.07;2.13
64861;PMS5003;62652;42.274;-71.436;2023-05-07T05:28:00;3.20;3.20;2.30
64861;PMS5003;62652;42.274;-71.436;2023-05-07T05:29:00;3.67;3.67;2.53
64861;PMS5003;62652;42.274;-71.436;2023-05-07T05:30:00;3.07;3.07;2.17
64861;PMS5003;62652;42.274;-71.436;2023-05-07T05:31:00;4.00;3.00;2.07
64861;PMS5003;62652;42.274;-71.436;2023-05-07T05:32:00;4.43;3.93;2.93
64861;PMS5003;62652;42.274;-71.436;2023-05-07T05:33:00;3.00;3.00;2.30
64861;PMS5003;62652;42.274;-71.436;2023-05-07T05:34:01;2.67;2.67;1.67
64861;PMS5003;62652;42.274;-71.436;2023-05-07T05:35:00;3.23;3.23;2.70
64861;PMS5003;62652;42.274;-71.436;2023-05-07T05:36:00;4.60;3.87;2.67
64861;PMS5003;62652;42.274;-71.436;2023-05-07T05:37:00;2.77;2.77;2.27
64861;PMS5003;62652;42.274;-71.436;2023-05-07T05:38:00;2.67;2.67;2.13
64861;PMS5003;62652;42.274;-71.436;2023-05-07T05:39:00;2.03;2.03;1.43
64861;PMS5003;62652;42.274;-71.436;2023-05-07T05:40:00;3.23;3.23;2.33